<?xml version="1.0" encoding="UTF-8" standalone="no" ?>
<gpx xmlns="http://www.topografix.com/GPX/1/1" xmlns:xsi="http://www.w3.org/2001/XMLSchema-instance" xsi:schemaLocation="http://www.topografix.com/GPX/1/1 http://www.topografix.com/GPX/1/1/gpx.xsd" version="1.1" creator="VisuGPX - https://www.visugpx.com">
  <metadata>
    <name>Canigou tour</name>
    <desc><![CDATA[Prévision Canigou 8 ou 9 jours]]></desc>
  </metadata>
  <trk>
    <name><![CDATA[De Cortalets à Mariailles par les crêtes du Barbet et la cabane de Moura]]></name>
    <trkseg>
      <trkpt lat="42.53452" lon="2.46521">
        <ele>2153</ele>
        <time>2016-07-07T06:27:26Z</time>
      </trkpt>
      <trkpt lat="42.5337" lon="2.46557">
        <ele>2157</ele>
        <time>2016-07-07T06:27:31Z</time>
      </trkpt>
      <trkpt lat="42.53256" lon="2.4672">
        <ele>2171</ele>
        <time>2016-07-07T06:27:36Z</time>
      </trkpt>
      <trkpt lat="42.5318" lon="2.46772">
        <ele>2193</ele>
        <time>2016-07-07T06:27:41Z</time>
      </trkpt>
      <trkpt lat="42.53123" lon="2.46823">
        <ele>2213</ele>
        <time>2016-07-07T06:27:46Z</time>
      </trkpt>
      <trkpt lat="42.53063" lon="2.46888">
        <ele>2228</ele>
        <time>2016-07-07T06:27:51Z</time>
      </trkpt>
      <trkpt lat="42.5301" lon="2.46866">
        <ele>2244</ele>
        <time>2016-07-07T06:27:56Z</time>
      </trkpt>
      <trkpt lat="42.52959" lon="2.46854">
        <ele>2259</ele>
        <time>2016-07-07T06:28:01Z</time>
      </trkpt>
      <trkpt lat="42.52946" lon="2.46914">
        <ele>2275</ele>
        <time>2016-07-07T06:28:06Z</time>
      </trkpt>
      <trkpt lat="42.52902" lon="2.46905">
        <ele>2290</ele>
        <time>2016-07-07T06:28:11Z</time>
      </trkpt>
      <trkpt lat="42.52763" lon="2.46909">
        <ele>2325</ele>
        <time>2016-07-07T06:28:16Z</time>
      </trkpt>
      <trkpt lat="42.52747" lon="2.46974">
        <ele>2346</ele>
        <time>2016-07-07T06:28:21Z</time>
      </trkpt>
      <trkpt lat="42.52712" lon="2.47068">
        <ele>2367</ele>
        <time>2016-07-07T06:28:26Z</time>
      </trkpt>
      <trkpt lat="42.52535" lon="2.47064">
        <ele>2437</ele>
        <time>2016-07-07T06:28:31Z</time>
      </trkpt>
      <trkpt lat="42.52507" lon="2.47107">
        <ele>2460</ele>
        <time>2016-07-07T06:28:36Z</time>
      </trkpt>
      <trkpt lat="42.52469" lon="2.4715">
        <ele>2480</ele>
        <time>2016-07-07T06:28:41Z</time>
      </trkpt>
      <trkpt lat="42.52393" lon="2.47141">
        <ele>2491</ele>
        <time>2016-07-07T06:28:46Z</time>
      </trkpt>
      <trkpt lat="42.522" lon="2.46948">
        <ele>2566</ele>
        <time>2016-07-07T06:28:51Z</time>
      </trkpt>
      <trkpt lat="42.52099" lon="2.46716">
        <ele>2633</ele>
        <time>2016-07-07T06:28:56Z</time>
      </trkpt>
      <trkpt lat="42.52039" lon="2.4651">
        <ele>2669</ele>
        <time>2016-07-07T06:29:01Z</time>
      </trkpt>
      <trkpt lat="42.51836" lon="2.46399">
        <ele>2701</ele>
        <time>2016-07-07T06:29:06Z</time>
      </trkpt>
      <trkpt lat="42.51789" lon="2.46454">
        <ele>2683</ele>
        <time>2016-07-07T06:29:11Z</time>
      </trkpt>
      <trkpt lat="42.51716" lon="2.46364">
        <ele>2678</ele>
        <time>2016-07-07T06:29:16Z</time>
      </trkpt>
      <trkpt lat="42.51431" lon="2.4621">
        <ele>2599</ele>
        <time>2016-07-07T06:29:21Z</time>
      </trkpt>
      <trkpt lat="42.51349" lon="2.46167">
        <ele>2562</ele>
        <time>2016-07-07T06:29:26Z</time>
      </trkpt>
      <trkpt lat="42.51194" lon="2.46205">
        <ele>2536</ele>
        <time>2016-07-07T06:29:31Z</time>
      </trkpt>
      <trkpt lat="42.51273" lon="2.46137">
        <ele>2514</ele>
        <time>2016-07-07T06:29:36Z</time>
      </trkpt>
      <trkpt lat="42.51245" lon="2.46115">
        <ele>2491</ele>
        <time>2016-07-07T06:29:41Z</time>
      </trkpt>
      <trkpt lat="42.51314" lon="2.4603">
        <ele>2479</ele>
        <time>2016-07-07T06:29:46Z</time>
      </trkpt>
      <trkpt lat="42.51261" lon="2.4603">
        <ele>2454</ele>
        <time>2016-07-07T06:29:51Z</time>
      </trkpt>
      <trkpt lat="42.51276" lon="2.45987">
        <ele>2442</ele>
        <time>2016-07-07T06:29:56Z</time>
      </trkpt>
      <trkpt lat="42.51175" lon="2.4603">
        <ele>2425</ele>
        <time>2016-07-07T06:30:01Z</time>
      </trkpt>
      <trkpt lat="42.51229" lon="2.45888">
        <ele>2402</ele>
        <time>2016-07-07T06:30:06Z</time>
      </trkpt>
      <trkpt lat="42.51178" lon="2.45896">
        <ele>2390</ele>
        <time>2016-07-07T06:30:11Z</time>
      </trkpt>
      <trkpt lat="42.5114" lon="2.45849">
        <ele>2374</ele>
        <time>2016-07-07T06:30:16Z</time>
      </trkpt>
      <trkpt lat="42.51096" lon="2.45905">
        <ele>2374</ele>
        <time>2016-07-07T06:30:21Z</time>
      </trkpt>
      <trkpt lat="42.5103" lon="2.45871">
        <ele>2361</ele>
        <time>2016-07-07T06:30:26Z</time>
      </trkpt>
      <trkpt lat="42.50973" lon="2.45819">
        <ele>2346</ele>
        <time>2016-07-07T06:30:31Z</time>
      </trkpt>
      <trkpt lat="42.50919" lon="2.45832">
        <ele>2343</ele>
        <time>2016-07-07T06:30:36Z</time>
      </trkpt>
      <trkpt lat="42.50903" lon="2.45794">
        <ele>2335</ele>
        <time>2016-07-07T06:30:41Z</time>
      </trkpt>
      <trkpt lat="42.50928" lon="2.45639">
        <ele>2322</ele>
        <time>2016-07-07T06:30:46Z</time>
      </trkpt>
      <trkpt lat="42.50855" lon="2.4569">
        <ele>2320</ele>
        <time>2016-07-07T06:30:51Z</time>
      </trkpt>
      <trkpt lat="42.50799" lon="2.45639">
        <ele>2308</ele>
        <time>2016-07-07T06:30:56Z</time>
      </trkpt>
      <trkpt lat="42.50754" lon="2.45665">
        <ele>2304</ele>
        <time>2016-07-07T06:31:01Z</time>
      </trkpt>
      <trkpt lat="42.50726" lon="2.45532">
        <ele>2283</ele>
        <time>2016-07-07T06:31:06Z</time>
      </trkpt>
      <trkpt lat="42.50764" lon="2.45502">
        <ele>2287</ele>
        <time>2016-07-07T06:31:11Z</time>
      </trkpt>
      <trkpt lat="42.5078" lon="2.45399">
        <ele>2275</ele>
        <time>2016-07-07T06:31:16Z</time>
      </trkpt>
      <trkpt lat="42.50824" lon="2.45381">
        <ele>2287</ele>
        <time>2016-07-07T06:31:21Z</time>
      </trkpt>
      <trkpt lat="42.50811" lon="2.45317">
        <ele>2285</ele>
        <time>2016-07-07T06:31:26Z</time>
      </trkpt>
      <trkpt lat="42.50726" lon="2.45279">
        <ele>2257</ele>
        <time>2016-07-07T06:31:31Z</time>
      </trkpt>
      <trkpt lat="42.50716" lon="2.45193">
        <ele>2252</ele>
        <time>2016-07-07T06:31:36Z</time>
      </trkpt>
      <trkpt lat="42.50644" lon="2.4512">
        <ele>2222</ele>
        <time>2016-07-07T06:31:41Z</time>
      </trkpt>
      <trkpt lat="42.50561" lon="2.44918">
        <ele>2182</ele>
        <time>2016-07-07T06:31:46Z</time>
      </trkpt>
      <trkpt lat="42.50441" lon="2.44781">
        <ele>2147</ele>
        <time>2016-07-07T06:31:51Z</time>
      </trkpt>
      <trkpt lat="42.50372" lon="2.44502">
        <ele>2121</ele>
        <time>2016-07-07T06:31:56Z</time>
      </trkpt>
      <trkpt lat="42.50216" lon="2.44167">
        <ele>2071</ele>
        <time>2016-07-07T06:32:01Z</time>
      </trkpt>
      <trkpt lat="42.50229" lon="2.44094">
        <ele>2069</ele>
        <time>2016-07-07T06:32:06Z</time>
      </trkpt>
      <trkpt lat="42.5027" lon="2.4406">
        <ele>2076</ele>
        <time>2016-07-07T06:32:11Z</time>
      </trkpt>
      <trkpt lat="42.50277" lon="2.43892">
        <ele>2049</ele>
        <time>2016-07-07T06:32:16Z</time>
      </trkpt>
      <trkpt lat="42.50327" lon="2.43901">
        <ele>2063</ele>
        <time>2016-07-07T06:32:21Z</time>
      </trkpt>
      <trkpt lat="42.50356" lon="2.43815">
        <ele>2058</ele>
        <time>2016-07-07T06:32:26Z</time>
      </trkpt>
      <trkpt lat="42.50311" lon="2.43764">
        <ele>2038</ele>
        <time>2016-07-07T06:32:31Z</time>
      </trkpt>
      <trkpt lat="42.50333" lon="2.43532">
        <ele>2026</ele>
        <time>2016-07-07T06:32:36Z</time>
      </trkpt>
    </trkseg>
  </trk>
</gpx>